Time;durP1;ratioP1;P1;durP2;ratioP2;P2;SDS_P1;SDS_P2;PMS_P1;PMS_P2;Temp;Humidity;BMP_temperature;BMP_pressure;BME280_temperature;BME280_humidity;BME280_pressure;Samples;Min_cycle;Max_cycle;Signal;HPM_P1;HPM_P2
2020/12/14 00:00:57;;;;;;;3.42;2.10;;;11.20;58.90;;;;;;2104936;28;21803;-74
2020/12/14 00:01:58;;;;;;;2.60;1.98;;;11.20;58.90;;;;;;2109256;28;20035;-74
2020/12/14 00:02:59;;;;;;;4.25;2.08;;;11.20;58.80;;;;;;2113393;28;20008;-75
2020/12/14 00:04:00;;;;;;;5.68;2.22;;;11.20;58.90;;;;;;2113784;28;20037;-74
2020/12/14 00:05:00;;;;;;;5.35;2.20;;;11.20;58.90;;;;;;2113866;28;20024;-74
2020/12/14 00:06:01;;;;;;;4.72;2.50;;;11.20;58.90;;;;;;2113869;28;20020;-74
2020/12/14 00:07:01;;;;;;;3.58;2.05;;;11.20;58.90;;;;;;2113870;28;20084;-74
2020/12/14 00:08:03;;;;;;;4.20;2.25;;;11.20;58.90;;;;;;2113632;28;20345;-74
2020/12/14 00:09:05;;;;;;;3.10;2.45;;;11.20;58.80;;;;;;2113271;28;20618;-75
2020/12/14 00:10:06;;;;;;;2.55;2.05;;;11.20;58.90;;;;;;2113974;28;20114;-74
2020/12/14 00:11:06;;;;;;;4.18;2.05;;;11.20;58.90;;;;;;2113968;28;20092;-75
2020/12/14 00:12:07;;;;;;;3.55;2.05;;;11.20;58.90;;;;;;2113949;28;20486;-75
2020/12/14 00:13:09;;;;;;;6.35;2.15;;;11.20;58.90;;;;;;2104182;28;20047;-74
2020/12/14 00:14:09;;;;;;;3.65;2.03;;;11.20;58.80;;;;;;2104837;28;20024;-75
2020/12/14 00:15:10;;;;;;;2.92;2.05;;;11.20;58.70;;;;;;2113609;28;20111;-75
2020/12/14 00:16:10;;;;;;;4.57;2.40;;;11.20;58.70;;;;;;2111977;28;20067;-75
2020/12/14 00:17:11;;;;;;;4.03;1.95;;;11.20;58.60;;;;;;2104347;28;20032;-74
2020/12/14 00:18:11;;;;;;;2.42;2.00;;;11.20;58.50;;;;;;2104921;28;20028;-74
2020/12/14 00:19:12;;;;;;;4.18;2.05;;;11.20;58.50;;;;;;2113049;28;20354;-75
2020/12/14 00:20:12;;;;;;;4.70;2.00;;;11.20;58.40;;;;;;2104929;28;20024;-75
2020/12/14 00:21:16;;;;;;;3.05;2.10;;;11.20;58.50;;;;;;2105106;28;20119;-75
2020/12/14 00:22:17;;;;;;;4.47;2.42;;;11.20;58.50;;;;;;2113099;27;20337;-75
2020/12/14 00:23:18;;;;;;;2.65;2.22;;;11.20;58.50;;;;;;2113294;27;20031;-74
2020/12/14 00:24:19;;;;;;;3.60;2.08;;;11.20;58.50;;;;;;2104667;28;20102;-75
2020/12/14 00:25:19;;;;;;;3.05;1.88;;;11.20;58.40;;;;;;2105131;28;20028;-75
2020/12/14 00:26:20;;;;;;;2.80;2.17;;;11.20;58.40;;;;;;2112802;28;20116;-75
2020/12/14 00:27:20;;;;;;;2.38;2.08;;;11.20;58.40;;;;;;2114014;28;20034;-74
2020/12/14 00:28:21;;;;;;;4.75;2.22;;;11.20;58.40;;;;;;2113388;28;20489;-75
2020/12/14 00:29:22;;;;;;;3.00;1.88;;;11.20;58.50;;;;;;2113162;28;20055;-74
2020/12/14 00:30:22;;;;;;;4.40;2.25;;;11.20;58.50;;;;;;2113690;28;20532;-74
2020/12/14 00:31:23;;;;;;;2.35;1.83;;;11.20;58.50;;;;;;2113160;28;20023;-75
2020/12/14 00:32:23;;;;;;;3.20;2.00;;;11.20;58.50;;;;;;2112927;28;20708;-75
2020/12/14 00:33:24;;;;;;;4.50;1.92;;;11.20;58.50;;;;;;2113274;28;20024;-75
2020/12/14 00:34:25;;;;;;;2.25;1.80;;;11.20;58.50;;;;;;2113751;28;20076;-75
2020/12/14 00:35:25;;;;;;;3.40;2.08;;;11.20;58.50;;;;;;2113671;28;20028;-75
2020/12/14 00:36:26;;;;;;;3.33;2.30;;;11.20;58.50;;;;;;2113178;28;20062;-74
2020/12/14 00:37:26;;;;;;;3.28;2.22;;;11.30;58.50;;;;;;2104599;28;20046;-74
2020/12/14 00:38:27;;;;;;;3.03;1.98;;;11.30;58.50;;;;;;2102973;28;20065;-75
2020/12/14 00:39:28;;;;;;;2.72;1.80;;;11.20;58.40;;;;;;2096379;28;20340;-75
2020/12/14 00:40:29;;;;;;;3.65;1.90;;;11.30;58.40;;;;;;2096846;28;20386;-74
2020/12/14 00:41:30;;;;;;;2.00;1.90;;;11.30;58.30;;;;;;2113527;27;20081;-74
2020/12/14 00:42:30;;;;;;;5.30;2.20;;;11.30;58.30;;;;;;2112724;28;20104;-74
2020/12/14 00:43:32;;;;;;;4.25;2.10;;;11.30;58.30;;;;;;2104733;28;20046;-75
2020/12/14 00:44:32;;;;;;;2.75;1.90;;;11.30;58.20;;;;;;2094447;28;20041;-75
2020/12/14 00:45:33;;;;;;;3.95;1.95;;;11.30;58.20;;;;;;2096554;28;20036;-74
2020/12/14 00:46:33;;;;;;;2.25;1.92;;;11.30;58.20;;;;;;2095030;28;20029;-74
2020/12/14 00:47:34;;;;;;;2.60;2.40;;;11.30;58.20;;;;;;2099736;28;20028;-74
2020/12/14 00:48:35;;;;;;;2.67;2.00;;;11.30;58.10;;;;;;2109242;28;20963;-74
2020/12/14 00:49:36;;;;;;;3.05;2.00;;;11.30;58.10;;;;;;2115213;28;20043;-74
2020/12/14 00:50:36;;;;;;;2.58;1.85;;;11.30;58.10;;;;;;2114066;28;20559;-74
2020/12/14 00:51:37;;;;;;;4.07;1.88;;;11.40;58.10;;;;;;2114689;27;20626;-74
2020/12/14 00:52:37;;;;;;;2.40;1.80;;;11.30;58.10;;;;;;2114827;28;20416;-74
2020/12/14 00:53:39;;;;;;;4.18;1.92;;;11.40;58.10;;;;;;2114765;28;20441;-74
2020/12/14 00:54:39;;;;;;;2.35;1.77;;;11.40;58.10;;;;;;2106503;28;20055;-74
2020/12/14 00:55:40;;;;;;;1.98;1.73;;;11.30;58.20;;;;;;2106473;28;20085;-74
2020/12/14 00:56:41;;;;;;;2.88;1.95;;;11.40;58.10;;;;;;2097044;28;20024;-74
2020/12/14 00:57:42;;;;;;;4.35;2.03;;;11.40;58.10;;;;;;2097539;28;20084;-74
2020/12/14 00:58:42;;;;;;;3.25;1.80;;;11.40;58.10;;;;;;2116534;27;20481;-74
2020/12/14 00:59:43;;;;;;;3.35;1.90;;;11.40;58.00;;;;;;2116317;27;20016;-74
2020/12/14 01:00:43;;;;;;;5.45;2.30;;;11.40;58.10;;;;;;2116755;27;20044;-74
2020/12/14 01:01:44;;;;;;;5.25;2.47;;;11.40;58.10;;;;;;2115180;28;20043;-74
2020/12/14 01:02:44;;;;;;;4.13;2.00;;;11.40;58.10;;;;;;2113661;28;20024;-75
2020/12/14 01:03:45;;;;;;;4.13;2.03;;;11.40;58.10;;;;;;2115382;28;20051;-75
2020/12/14 01:04:45;;;;;;;2.80;1.98;;;11.50;58.10;;;;;;2108891;28;20024;-74
2020/12/14 01:05:46;;;;;;;4.60;2.20;;;11.40;58.10;;;;;;2105884;28;20020;-74
2020/12/14 01:06:55;;;;;;;4.65;1.75;;;11.50;58.10;;;;;;2106611;28;20039;-74
2020/12/14 01:07:55;;;;;;;4.85;1.63;;;11.40;57.90;;;;;;2103975;28;20103;-74
2020/12/14 01:08:56;;;;;;;3.10;1.65;;;11.40;58.00;;;;;;2105891;28;20036;-74
2020/12/14 01:09:56;;;;;;;2.40;1.80;;;11.50;58.10;;;;;;2096745;28;20032;-74
2020/12/14 01:10:57;;;;;;;3.15;1.85;;;11.50;58.10;;;;;;2095735;28;20032;-74
2020/12/14 01:12:02;;;;;;;2.53;1.98;;;11.50;58.20;;;;;;2112814;28;20346;-73
2020/12/14 01:13:02;;;;;;;1.60;1.50;;;11.40;58.10;;;;;;2113289;28;20115;-75
2020/12/14 01:14:03;;;;;;;3.00;1.92;;;11.40;58.20;;;;;;2104746;28;20020;-74
2020/12/14 01:15:05;;;;;;;1.92;1.70;;;11.50;58.20;;;;;;2104609;28;20050;-74
2020/12/14 01:16:08;;;;;;;6.88;1.67;;;11.50;58.20;;;;;;2103753;28;20028;-75
2020/12/14 01:17:09;;;;;;;3.63;1.95;;;11.40;58.10;;;;;;2095936;28;20557;-74
2020/12/14 01:18:10;;;;;;;3.67;1.90;;;11.40;58.10;;;;;;2104717;28;20460;-74
2020/12/14 01:19:11;;;;;;;2.92;1.90;;;11.40;58.00;;;;;;2104301;28;20024;-74
2020/12/14 01:20:13;;;;;;;1.52;1.42;;;11.50;58.10;;;;;;2104761;28;20071;-74
2020/12/14 01:21:14;;;;;;;3.40;1.75;;;11.50;58.60;;;;;;2113020;28;20027;-74
2020/12/14 01:22:15;;;;;;;2.58;1.48;;;11.50;58.10;;;;;;2113534;28;20482;-74
2020/12/14 01:23:17;;;;;;;3.75;1.73;;;11.50;58.00;;;;;;2113264;28;20047;-74
2020/12/14 01:24:18;;;;;;;4.63;1.70;;;11.50;58.00;;;;;;2113220;28;20050;-74
2020/12/14 01:25:18;;;;;;;4.13;1.70;;;11.50;58.00;;;;;;2104759;28;20016;-74
2020/12/14 01:26:19;;;;;;;3.97;1.80;;;11.50;57.90;;;;;;2104530;28;20020;-74
2020/12/14 01:27:19;;;;;;;2.83;1.80;;;11.50;58.00;;;;;;2112990;28;20024;-74
2020/12/14 01:28:20;;;;;;;3.97;1.90;;;11.50;58.00;;;;;;2112837;28;20031;-74
2020/12/14 01:29:20;;;;;;;3.15;1.50;;;11.50;58.00;;;;;;2112605;28;20027;-74
2020/12/14 01:30:21;;;;;;;3.35;1.90;;;11.50;58.00;;;;;;2113111;28;20023;-74
2020/12/14 01:31:23;;;;;;;2.20;1.65;;;11.50;58.00;;;;;;2112507;28;20055;-74
2020/12/14 01:32:23;;;;;;;4.00;2.03;;;11.50;58.00;;;;;;2112156;28;20034;-74
2020/12/14 01:33:24;;;;;;;2.85;1.55;;;11.50;58.00;;;;;;2111644;28;20022;-74
2020/12/14 01:34:24;;;;;;;2.13;1.90;;;11.50;58.00;;;;;;2112532;28;20066;-74
2020/12/14 01:35:25;;;;;;;2.65;1.67;;;11.50;58.00;;;;;;2112652;28;20024;-74
2020/12/14 01:36:25;;;;;;;3.10;1.63;;;11.50;58.10;;;;;;2113312;28;20092;-74
2020/12/14 01:37:26;;;;;;;3.40;2.00;;;11.50;58.00;;;;;;2113229;28;20032;-75
2020/12/14 01:38:27;;;;;;;2.10;1.70;;;11.50;58.00;;;;;;2112496;28;20028;-74
2020/12/14 01:39:27;;;;;;;4.30;1.58;;;11.50;58.10;;;;;;2112763;28;20020;-74
2020/12/14 01:40:28;;;;;;;4.00;1.70;;;11.50;58.00;;;;;;2113415;28;20028;-74
2020/12/14 01:41:28;;;;;;;3.03;1.88;;;11.50;58.00;;;;;;2113070;27;20478;-74
2020/12/14 01:42:29;;;;;;;1.70;1.60;;;11.50;58.10;;;;;;2103861;28;20624;-74
2020/12/14 01:43:29;;;;;;;2.42;1.58;;;11.50;58.00;;;;;;2104690;28;20099;-74
2020/12/14 01:44:30;;;;;;;1.95;1.60;;;11.50;58.10;;;;;;2111911;28;20019;-75
2020/12/14 01:45:31;;;;;;;2.00;1.50;;;11.50;58.10;;;;;;2113157;28;20032;-74
2020/12/14 01:46:31;;;;;;;3.97;1.80;;;11.40;58.10;;;;;;2103414;28;20027;-74
2020/12/14 01:47:42;;;;;;;2.75;1.35;;;11.50;58.10;;;;;;2103208;28;20071;-75
2020/12/14 01:48:43;;;;;;;2.33;1.67;;;11.50;58.10;;;;;;2103624;28;20620;-75
2020/12/14 01:49:44;;;;;;;3.03;1.75;;;11.50;58.10;;;;;;2104307;28;20043;-75
2020/12/14 01:50:44;;;;;;;1.52;1.42;;;11.50;58.50;;;;;;2103883;28;20028;-75
2020/12/14 01:51:45;;;;;;;2.83;1.42;;;11.50;58.00;;;;;;2104090;28;20028;-74
2020/12/14 01:52:46;;;;;;;2.30;1.55;;;11.50;58.00;;;;;;2112750;28;20051;-75
2020/12/14 01:53:49;;;;;;;2.83;1.55;;;11.50;58.00;;;;;;2104247;28;20028;-74
2020/12/14 01:54:53;;;;;;;2.53;1.50;;;11.50;58.10;;;;;;2104219;28;20024;-74
2020/12/14 01:55:54;;;;;;;2.67;1.40;;;11.50;58.10;;;;;;2112541;28;20077;-74
2020/12/14 01:56:58;;;;;;;2.70;1.60;;;11.50;58.10;;;;;;2103516;28;20083;-74
2020/12/14 01:57:58;;;;;;;3.20;1.60;;;11.50;58.20;;;;;;2103872;28;20025;-74
2020/12/14 01:58:59;;;;;;;2.03;1.40;;;11.40;58.10;;;;;;2112249;28;20074;-74
2020/12/14 02:00:00;;;;;;;3.05;1.58;;;11.40;58.10;;;;;;2112380;28;20015;-73
2020/12/14 02:01:02;;;;;;;3.25;1.70;;;11.50;58.20;;;;;;2103295;28;20106;-74
2020/12/14 02:02:03;;;;;;;2.45;1.33;;;11.40;58.10;;;;;;2101284;28;20035;-74
2020/12/14 02:03:03;;;;;;;1.40;1.30;;;11.40;58.10;;;;;;2111883;28;20118;-74
2020/12/14 02:04:04;;;;;;;1.70;1.60;;;11.40;58.10;;;;;;2112597;28;20031;-74
2020/12/14 02:05:07;;;;;;;2.58;1.60;;;11.40;58.10;;;;;;2113030;28;20019;-74
2020/12/14 02:06:07;;;;;;;2.30;1.63;;;11.40;58.10;;;;;;2101489;28;20062;-76
2020/12/14 02:07:08;;;;;;;3.80;1.50;;;11.40;58.20;;;;;;2095689;28;20020;-75
2020/12/14 02:08:09;;;;;;;3.70;1.58;;;11.40;58.20;;;;;;2104363;28;20039;-75
2020/12/14 02:09:10;;;;;;;2.00;1.50;;;11.30;58.00;;;;;;2112488;28;20064;-74
2020/12/14 02:10:11;;;;;;;4.80;1.88;;;11.30;58.00;;;;;;2113126;28;20020;-74
2020/12/14 02:11:12;;;;;;;2.75;1.63;;;11.30;58.10;;;;;;2103510;28;20773;-77
2020/12/14 02:12:12;;;;;;;2.67;1.38;;;11.30;58.20;;;;;;2103945;28;20389;-75
2020/12/14 02:13:13;;;;;;;1.80;1.50;;;11.30;58.20;;;;;;2113006;28;20398;-74
2020/12/14 02:14:13;;;;;;;2.13;1.45;;;11.30;58.20;;;;;;2112223;28;20024;-75
2020/12/14 02:15:15;;;;;;;3.88;1.60;;;11.30;58.20;;;;;;2113241;28;20146;-73
2020/12/14 02:16:15;;;;;;;2.95;1.50;;;11.30;58.30;;;;;;2111795;28;20035;-75
2020/12/14 02:17:20;;;;;;;1.55;1.30;;;11.20;58.20;;;;;;2112551;28;20031;-74
2020/12/14 02:18:22;;;;;;;2.35;1.67;;;11.20;58.20;;;;;;2104011;28;20078;-75
2020/12/14 02:19:23;;;;;;;2.72;1.35;;;11.20;58.20;;;;;;2102479;28;20525;-74
2020/12/14 02:20:23;;;;;;;3.38;1.92;;;11.20;58.20;;;;;;2113034;28;20016;-73
2020/12/14 02:21:24;;;;;;;2.17;1.40;;;11.20;58.30;;;;;;2113020;28;20077;-75
2020/12/14 02:22:27;;;;;;;4.40;1.60;;;11.20;58.30;;;;;;2095101;28;20035;-74
2020/12/14 02:23:27;;;;;;;2.38;1.50;;;11.20;58.40;;;;;;2096478;28;20029;-75
2020/12/14 02:24:28;;;;;;;3.83;1.50;;;11.10;58.40;;;;;;2112656;28;20670;-73
2020/12/14 02:25:28;;;;;;;3.17;1.58;;;11.10;58.40;;;;;;2112993;28;20008;-75
2020/12/14 02:26:29;;;;;;;4.50;2.08;;;11.10;58.50;;;;;;2112259;28;20016;-75
2020/12/14 02:27:32;;;;;;;2.58;1.52;;;11.10;58.50;;;;;;2100850;28;20036;-75
2020/12/14 02:28:32;;;;;;;4.40;1.67;;;11.10;58.50;;;;;;2100912;28;20102;-78
2020/12/14 02:29:33;;;;;;;1.73;1.50;;;11.10;58.60;;;;;;2112864;28;20036;-78
2020/12/14 02:30:33;;;;;;;2.53;1.80;;;11.10;58.60;;;;;;2104194;28;20024;-74
2020/12/14 02:31:34;;;;;;;2.45;1.67;;;11.10;58.60;;;;;;2102779;28;20067;-75
2020/12/14 02:32:35;;;;;;;1.85;1.50;;;11.10;58.70;;;;;;2104261;28;20067;-75
2020/12/14 02:33:35;;;;;;;1.60;1.50;;;11.10;58.70;;;;;;2112979;28;20027;-75
2020/12/14 02:34:36;;;;;;;1.98;1.70;;;11.10;58.80;;;;;;2112799;28;20043;-75
2020/12/14 02:35:36;;;;;;;2.67;1.58;;;11.10;58.80;;;;;;2113416;28;20059;-75
2020/12/14 02:36:37;;;;;;;1.95;1.35;;;11.10;58.80;;;;;;2112538;28;20216;-74
2020/12/14 02:37:37;;;;;;;2.55;1.63;;;11.10;58.90;;;;;;2112768;28;20517;-74
2020/12/14 02:38:38;;;;;;;6.25;2.00;;;11.10;58.90;;;;;;2112651;28;20106;-74
2020/12/14 02:39:39;;;;;;;4.15;1.73;;;11.10;58.90;;;;;;2112517;28;20031;-75
2020/12/14 02:40:40;;;;;;;3.08;1.50;;;11.10;58.90;;;;;;2111933;28;20023;-75
2020/12/14 02:41:41;;;;;;;2.70;1.73;;;11.10;58.90;;;;;;2103862;28;20028;-74
2020/12/14 02:42:42;;;;;;;3.35;1.90;;;11.10;59.00;;;;;;2103799;28;20032;-75
2020/12/14 02:43:42;;;;;;;2.80;1.77;;;11.10;59.00;;;;;;2112243;28;20517;-75
2020/12/14 02:44:44;;;;;;;2.30;1.40;;;11.10;59.00;;;;;;2112049;28;20045;-74
2020/12/14 02:45:45;;;;;;;6.43;1.83;;;11.20;59.00;;;;;;2113286;28;20102;-74
2020/12/14 02:46:45;;;;;;;2.67;1.70;;;11.10;59.10;;;;;;2107323;28;20028;-75
2020/12/14 02:47:46;;;;;;;2.75;1.73;;;11.20;59.10;;;;;;2108608;28;20024;-75
2020/12/14 02:48:47;;;;;;;2.78;1.85;;;11.20;59.10;;;;;;2105295;28;20028;-75
2020/12/14 02:49:47;;;;;;;3.03;1.95;;;11.20;59.10;;;;;;2105279;28;20028;-75
2020/12/14 02:50:48;;;;;;;3.92;1.75;;;11.20;59.10;;;;;;2114653;28;20066;-74
2020/12/14 02:51:49;;;;;;;2.80;1.45;;;11.20;59.20;;;;;;2114671;28;20033;-74
2020/12/14 02:52:49;;;;;;;3.38;1.55;;;11.20;59.10;;;;;;2113702;28;20015;-74
2020/12/14 02:53:50;;;;;;;2.50;1.63;;;11.20;59.10;;;;;;2114942;28;20034;-74
2020/12/14 02:54:50;;;;;;;2.38;1.60;;;11.20;59.20;;;;;;2114334;28;20068;-75
2020/12/14 02:55:51;;;;;;;1.60;1.50;;;11.20;59.20;;;;;;2114392;28;20107;-74
2020/12/14 02:56:52;;;;;;;2.03;1.52;;;11.20;59.20;;;;;;2114211;28;20053;-74
2020/12/14 02:57:52;;;;;;;3.28;1.67;;;11.20;59.20;;;;;;2113978;28;20050;-74
2020/12/14 02:58:53;;;;;;;5.30;1.90;;;11.20;59.20;;;;;;2113981;28;20818;-75
2020/12/14 02:59:53;;;;;;;4.78;2.00;;;11.20;59.20;;;;;;2105793;28;20105;-74
2020/12/14 03:00:54;;;;;;;2.50;1.45;;;11.20;59.20;;;;;;2104986;28;20060;-74
2020/12/14 03:01:54;;;;;;;3.28;1.50;;;11.20;59.20;;;;;;2096029;28;20025;-74
2020/12/14 03:02:55;;;;;;;2.75;1.52;;;11.20;59.30;;;;;;2105299;28;20023;-74
2020/12/14 03:03:56;;;;;;;2.10;1.70;;;11.20;59.20;;;;;;2113960;28;20012;-75
2020/12/14 03:04:56;;;;;;;4.35;1.73;;;11.20;59.20;;;;;;2105519;28;20132;-75
2020/12/14 03:05:57;;;;;;;6.45;1.95;;;11.20;59.20;;;;;;2105544;28;20042;-75
2020/12/14 03:06:58;;;;;;;3.22;1.80;;;11.20;59.20;;;;;;2105459;28;20020;-75
2020/12/14 03:07:59;;;;;;;2.00;1.80;;;11.20;59.20;;;;;;2105070;28;20078;-75
2020/12/14 03:08:59;;;;;;;2.53;1.70;;;11.20;59.30;;;;;;2113247;28;20081;-75
2020/12/14 03:10:00;;;;;;;1.83;1.40;;;11.30;59.40;;;;;;2114372;28;20035;-74
2020/12/14 03:11:00;;;;;;;1.92;1.70;;;11.20;59.30;;;;;;2113977;28;20023;-74
2020/12/14 03:12:02;;;;;;;2.75;1.58;;;11.20;59.30;;;;;;2105438;28;20020;-74
2020/12/14 03:13:02;;;;;;;2.50;1.52;;;11.20;59.40;;;;;;2088530;28;20021;-74
2020/12/14 03:14:03;;;;;;;4.03;1.55;;;11.20;59.40;;;;;;2092406;28;20056;-75
2020/12/14 03:15:04;;;;;;;2.38;1.70;;;11.20;59.40;;;;;;2113736;28;20035;-74
2020/12/14 03:16:04;;;;;;;1.80;1.60;;;11.30;59.50;;;;;;2095023;28;20055;-75
2020/12/14 03:17:06;;;;;;;2.30;1.60;;;11.20;59.50;;;;;;2088072;28;20137;-75
2020/12/14 03:18:06;;;;;;;3.22;1.85;;;11.30;59.50;;;;;;2105306;28;20111;-74
2020/12/14 03:19:07;;;;;;;3.25;1.83;;;11.30;59.50;;;;;;2113513;28;20481;-74
2020/12/14 03:20:08;;;;;;;2.58;1.73;;;11.30;59.50;;;;;;2114591;27;20357;-75
2020/12/14 03:21:08;;;;;;;1.83;1.45;;;11.30;59.50;;;;;;2114166;28;20100;-76
2020/12/14 03:22:09;;;;;;;2.92;1.60;;;11.30;59.60;;;;;;2114272;28;20027;-75
2020/12/14 03:23:09;;;;;;;1.67;1.52;;;11.20;59.60;;;;;;2105058;28;20127;-74
2020/12/14 03:24:10;;;;;;;4.30;1.92;;;11.20;59.50;;;;;;2104956;28;20127;-75
2020/12/14 03:25:11;;;;;;;1.60;1.50;;;11.20;59.50;;;;;;2114327;28;20020;-73
2020/12/14 03:26:18;;;;;;;3.83;1.77;;;11.20;59.60;;;;;;2113469;28;20088;-75
2020/12/14 03:27:19;;;;;;;3.83;1.90;;;11.20;59.60;;;;;;2114556;28;20050;-74
2020/12/14 03:28:19;;;;;;;1.42;1.33;;;11.20;59.60;;;;;;2114003;28;20059;-75
2020/12/14 03:29:20;;;;;;;3.20;1.92;;;11.20;59.60;;;;;;2113273;28;20381;-75
2020/12/14 03:30:20;;;;;;;1.60;1.50;;;11.20;59.70;;;;;;2101891;28;20658;-74
2020/12/14 03:31:21;;;;;;;2.03;1.63;;;11.20;59.70;;;;;;2099752;28;20108;-75
2020/12/14 03:32:22;;;;;;;2.35;1.60;;;11.20;59.70;;;;;;2113245;28;20027;-75
2020/12/14 03:33:23;;;;;;;2.05;1.60;;;11.20;59.80;;;;;;2113905;28;20051;-74
2020/12/14 03:34:23;;;;;;;3.35;1.55;;;11.20;59.80;;;;;;2113786;28;20132;-75
2020/12/14 03:35:24;;;;;;;3.22;1.85;;;11.20;59.90;;;;;;2105345;28;20087;-74
2020/12/14 03:36:25;;;;;;;2.22;1.60;;;11.20;60.00;;;;;;2105346;28;20112;-74
2020/12/14 03:37:27;;;;;;;2.28;1.50;;;11.10;59.90;;;;;;2105409;28;20031;-75
2020/12/14 03:38:27;;;;;;;2.38;1.67;;;11.10;60.10;;;;;;2104838;28;20033;-76
2020/12/14 03:39:28;;;;;;;3.45;1.75;;;11.10;60.10;;;;;;2113848;28;20042;-75
2020/12/14 03:40:28;;;;;;;2.90;1.60;;;11.10;60.20;;;;;;2114198;28;20032;-72
2020/12/14 03:41:29;;;;;;;2.97;1.67;;;11.10;60.20;;;;;;2114030;28;20043;-74
2020/12/14 03:42:30;;;;;;;3.03;1.40;;;11.10;60.30;;;;;;2113861;28;20031;-74
2020/12/14 03:43:31;;;;;;;2.35;1.58;;;11.10;60.40;;;;;;2113859;28;20146;-74
2020/12/14 03:44:31;;;;;;;2.42;1.58;;;11.10;60.40;;;;;;2113796;28;20697;-74
2020/12/14 03:45:32;;;;;;;3.00;1.90;;;11.10;60.40;;;;;;2114520;28;20035;-74
2020/12/14 03:46:34;;;;;;;2.55;1.60;;;11.10;60.50;;;;;;2092807;28;20470;-74
2020/12/14 03:47:34;;;;;;;3.20;1.55;;;11.10;60.50;;;;;;2094157;28;20061;-74
2020/12/14 03:48:35;;;;;;;2.08;1.50;;;11.10;60.60;;;;;;2112959;28;20027;-73
2020/12/14 03:49:35;;;;;;;2.20;1.65;;;11.10;60.60;;;;;;2113930;28;20027;-74
2020/12/14 03:50:42;;;;;;;1.42;1.33;;;11.10;60.70;;;;;;2113908;28;20071;-74
2020/12/14 03:51:43;;;;;;;2.00;1.52;;;11.20;60.90;;;;;;2096802;28;20681;-74
2020/12/14 03:52:43;;;;;;;2.75;1.70;;;11.20;60.90;;;;;;2096115;28;20039;-74
2020/12/14 03:53:44;;;;;;;4.15;1.67;;;11.20;61.60;;;;;;2114413;28;20171;-75
2020/12/14 03:54:44;;;;;;;3.75;1.60;;;11.20;60.90;;;;;;2113657;28;20115;-74
2020/12/14 03:55:45;;;;;;;3.22;1.85;;;11.20;60.90;;;;;;2104560;28;20020;-74
2020/12/14 03:56:45;;;;;;;2.88;1.75;;;11.20;61.00;;;;;;2104407;28;20028;-75
2020/12/14 03:57:46;;;;;;;2.38;1.60;;;11.20;61.00;;;;;;2112947;28;20586;-74
2020/12/14 03:58:47;;;;;;;1.58;1.48;;;11.20;61.00;;;;;;2113185;28;20115;-74
2020/12/14 03:59:47;;;;;;;2.95;1.75;;;11.20;61.00;;;;;;2114292;28;20353;-75
2020/12/14 04:00:48;;;;;;;1.75;1.60;;;11.20;61.20;;;;;;2105049;28;20023;-74
2020/12/14 04:01:54;;;;;;;3.03;1.60;;;11.20;61.10;;;;;;2094792;28;20445;-73
2020/12/14 04:02:54;;;;;;;3.50;1.42;;;11.20;61.20;;;;;;2104988;28;20130;-73
2020/12/14 04:03:55;;;;;;;1.98;1.50;;;11.20;61.10;;;;;;2104826;28;20046;-74
2020/12/14 04:04:55;;;;;;;1.50;1.40;;;11.20;61.10;;;;;;2096838;28;20051;-75
2020/12/14 04:05:56;;;;;;;2.17;1.50;;;11.30;61.20;;;;;;2096731;28;20025;-75
2020/12/14 04:06:57;;;;;;;1.88;1.42;;;11.30;61.20;;;;;;2105175;28;20593;-74
2020/12/14 04:07:57;;;;;;;1.88;1.60;;;11.30;61.20;;;;;;2112905;28;20020;-74
2020/12/14 04:08:58;;;;;;;2.47;1.67;;;11.30;61.30;;;;;;2112987;28;20028;-75
2020/12/14 04:09:58;;;;;;;3.40;1.55;;;11.30;61.30;;;;;;2113567;28;20031;-74
2020/12/14 04:10:59;;;;;;;2.13;1.75;;;11.30;61.30;;;;;;2113608;28;20020;-74
2020/12/14 04:11:59;;;;;;;3.10;1.63;;;11.30;61.30;;;;;;2114314;28;20036;-74
2020/12/14 04:13:00;;;;;;;2.50;1.63;;;11.30;61.30;;;;;;2113749;28;20077;-75
2020/12/14 04:14:01;;;;;;;3.67;1.95;;;11.30;61.30;;;;;;2113264;28;20024;-75
2020/12/14 04:15:01;;;;;;;3.60;1.70;;;11.30;61.30;;;;;;2105599;28;20020;-75
2020/12/14 04:16:02;;;;;;;1.55;1.40;;;11.30;61.30;;;;;;2104102;28;20152;-75
2020/12/14 04:17:03;;;;;;;3.15;1.50;;;11.30;61.40;;;;;;2101014;28;20063;-74
2020/12/14 04:18:04;;;;;;;2.22;1.50;;;11.30;61.50;;;;;;2101337;28;20025;-75
2020/12/14 04:19:05;;;;;;;4.30;1.58;;;11.30;61.50;;;;;;2104001;28;20061;-75
2020/12/14 04:20:05;;;;;;;1.50;1.40;;;11.30;61.50;;;;;;2104912;28;20028;-75
2020/12/14 04:21:07;;;;;;;2.13;1.42;;;11.40;61.60;;;;;;2113965;28;20028;-75
2020/12/14 04:22:08;;;;;;;2.70;1.52;;;11.40;61.70;;;;;;2113292;28;20419;-75
2020/12/14 04:23:08;;;;;;;1.67;1.58;;;11.40;61.70;;;;;;2113608;28;20035;-75
2020/12/14 04:24:09;;;;;;;1.77;1.58;;;11.40;61.70;;;;;;2114035;28;20068;-74
2020/12/14 04:25:10;;;;;;;3.72;1.60;;;11.40;61.70;;;;;;2113671;28;20081;-75
2020/12/14 04:26:14;;;;;;;3.08;1.48;;;11.40;61.70;;;;;;2113062;28;20067;-75
2020/12/14 04:27:14;;;;;;;1.52;1.40;;;11.40;61.80;;;;;;2101797;28;20107;-75
2020/12/14 04:28:15;;;;;;;4.65;2.00;;;11.40;61.80;;;;;;2096246;28;20463;-74
2020/12/14 04:29:15;;;;;;;3.47;1.40;;;11.40;61.80;;;;;;2104152;28;20028;-74
2020/12/14 04:30:16;;;;;;;3.45;1.35;;;11.40;61.70;;;;;;2114267;28;20019;-75
2020/12/14 04:31:17;;;;;;;2.60;1.77;;;11.40;61.70;;;;;;2112523;28;20082;-74
2020/12/14 04:32:17;;;;;;;3.65;1.60;;;11.50;61.80;;;;;;2101517;28;20024;-74
2020/12/14 04:33:18;;;;;;;1.83;1.48;;;11.40;61.80;;;;;;2101360;28;20110;-74
2020/12/14 04:34:19;;;;;;;2.40;1.60;;;11.40;61.80;;;;;;2113626;28;20104;-75
2020/12/14 04:35:19;;;;;;;1.85;1.40;;;11.40;61.80;;;;;;2104486;28;20016;-75
2020/12/14 04:36:20;;;;;;;4.10;1.80;;;11.40;61.80;;;;;;2104810;28;20373;-75
2020/12/14 04:37:20;;;;;;;1.77;1.30;;;11.50;61.90;;;;;;2113733;28;20161;-74
2020/12/14 04:38:21;;;;;;;1.88;1.60;;;11.50;61.90;;;;;;2113607;28;20992;-75
2020/12/14 04:39:22;;;;;;;2.47;1.70;;;11.50;61.90;;;;;;2112974;28;20032;-75
2020/12/14 04:40:27;;;;;;;1.60;1.50;;;11.50;61.80;;;;;;2112999;28;20088;-75
2020/12/14 04:41:27;;;;;;;1.40;1.30;;;11.50;61.80;;;;;;2113328;28;20453;-75
2020/12/14 04:42:29;;;;;;;2.15;1.42;;;11.50;61.80;;;;;;2113537;28;20039;-75
2020/12/14 04:43:29;;;;;;;1.92;1.30;;;11.50;61.80;;;;;;2113157;28;20038;-74
2020/12/14 04:44:31;;;;;;;2.30;1.60;;;11.50;61.80;;;;;;2112586;28;20062;-75
2020/12/14 04:45:32;;;;;;;2.25;1.40;;;11.50;61.90;;;;;;2113527;28;20055;-74
2020/12/14 04:46:33;;;;;;;2.67;1.30;;;11.50;61.80;;;;;;2112149;28;20027;-73
2020/12/14 04:47:35;;;;;;;4.00;1.58;;;11.50;61.80;;;;;;2104045;28;20422;-75
2020/12/14 04:48:36;;;;;;;2.03;1.38;;;11.50;61.80;;;;;;2104312;28;20035;-75
2020/12/14 04:49:39;;;;;;;2.10;1.60;;;11.50;61.90;;;;;;2113367;28;20028;-75
2020/12/14 04:50:40;;;;;;;2.17;1.33;;;11.50;61.80;;;;;;2113130;28;20398;-75
2020/12/14 04:51:41;;;;;;;1.67;1.45;;;11.50;61.80;;;;;;2113547;28;20028;-75
2020/12/14 04:52:44;;;;;;;1.50;1.25;;;11.50;61.80;;;;;;2104054;28;20012;-74
2020/12/14 04:53:45;;;;;;;3.30;1.52;;;11.50;61.70;;;;;;2096318;28;20443;-74
2020/12/14 04:54:48;;;;;;;2.38;1.35;;;11.40;61.60;;;;;;2104605;28;20036;-75
2020/12/14 04:55:48;;;;;;;1.98;1.67;;;11.50;61.60;;;;;;2113270;28;20354;-75
2020/12/14 04:56:53;;;;;;;1.90;1.55;;;11.50;61.60;;;;;;2113392;28;20063;-75
2020/12/14 04:57:54;;;;;;;2.17;1.65;;;11.50;61.70;;;;;;2112979;28;20560;-74
2020/12/14 04:58:57;;;;;;;2.75;1.73;;;11.40;61.60;;;;;;2112963;28;20035;-75
2020/12/14 04:59:57;;;;;;;2.38;1.50;;;11.40;61.70;;;;;;2113299;28;20365;-75
2020/12/14 05:00:58;;;;;;;3.28;1.60;;;11.40;61.70;;;;;;2113361;28;20036;-75
2020/12/14 05:02:10;;;;;;;1.70;1.55;;;11.40;61.80;;;;;;2112179;28;20066;-75
2020/12/14 05:03:10;;;;;;;4.18;1.45;;;11.40;61.90;;;;;;2113243;28;20019;-75
2020/12/14 05:04:11;;;;;;;2.13;1.25;;;11.30;61.70;;;;;;2113392;28;20030;-75
2020/12/14 05:05:13;;;;;;;2.95;1.52;;;11.40;61.90;;;;;;2112925;28;20020;-75
2020/12/14 05:06:14;;;;;;;2.08;1.60;;;11.30;61.80;;;;;;2113181;28;20327;-75
2020/12/14 05:07:15;;;;;;;1.30;1.20;;;11.30;61.80;;;;;;2101127;28;20035;-74
2020/12/14 05:08:24;;;;;;;2.00;1.30;;;11.30;61.90;;;;;;2100124;28;20027;-75
2020/12/14 05:09:25;;;;;;;4.45;1.55;;;11.30;62.00;;;;;;2112656;28;20098;-76
2020/12/14 05:10:27;;;;;;;2.60;1.55;;;11.30;61.90;;;;;;2113325;28;20027;-74
2020/12/14 05:11:34;;;;;;;1.95;1.50;;;11.30;61.90;;;;;;2113410;28;20092;-74
2020/12/14 05:12:43;;;;;;;3.05;1.55;;;11.30;62.00;;;;;;2113024;28;20038;-75
2020/12/14 05:13:43;;;;;;;2.10;1.65;;;11.30;62.10;;;;;;2113103;28;20036;-75
2020/12/14 05:14:44;;;;;;;2.60;1.48;;;11.30;62.00;;;;;;2113473;28;20086;-75
2020/12/14 05:15:45;;;;;;;2.35;1.30;;;11.20;62.10;;;;;;2112400;28;20039;-75
2020/12/14 05:16:46;;;;;;;2.05;1.30;;;11.20;62.10;;;;;;2112190;28;20528;-74
2020/12/14 05:17:49;;;;;;;3.55;1.40;;;11.20;62.10;;;;;;2113127;28;20114;-75
2020/12/14 05:18:49;;;;;;;1.88;1.30;;;11.20;62.20;;;;;;2103486;28;20025;-74